createdAt,value
2022-10-20T00:02:11.429Z,5.65
2022-10-20T00:04:40.284Z,5.63
2022-10-20T00:07:09.322Z,5.47
2022-10-20T00:09:36.764Z,5.45
2022-10-20T00:12:04.728Z,5.85
2022-10-20T00:14:32.186Z,5.55
2022-10-20T00:17:01.367Z,5.52
2022-10-20T00:19:28.868Z,5.74
2022-10-20T00:21:58.071Z,5.83
2022-10-20T00:24:25.662Z,5.86
2022-10-20T00:26:56.335Z,5.65
2022-10-20T00:29:23.803Z,5.75
2022-10-20T00:31:51.282Z,6.11
2022-10-20T00:34:19.090Z,5.87
2022-10-20T00:36:50.371Z,5.65
2022-10-20T00:39:21.372Z,6.05
2022-10-20T00:41:48.851Z,6.16
2022-10-20T00:44:48.927Z,6.42
2022-10-20T00:47:19.930Z,5.98
2022-10-20T00:49:47.927Z,6.08
2022-10-20T00:52:18.529Z,6.19
2022-10-20T00:54:48.078Z,5.94
2022-10-20T00:57:16.632Z,6.10
2022-10-20T00:59:44.384Z,6.30
2022-10-20T01:02:12.385Z,6.22
2022-10-20T01:04:40.120Z,6.31
2022-10-20T01:07:07.671Z,6.45
2022-10-20T01:09:35.628Z,6.39
2022-10-20T01:12:14.982Z,6.33
2022-10-20T01:14:48.011Z,6.25
2022-10-20T01:17:25.196Z,6.33
2022-10-20T01:20:12.701Z,6.30
2022-10-20T01:23:02.598Z,6.31
2022-10-20T01:25:47.193Z,6.50
2022-10-20T01:28:21.480Z,6.51
2022-10-20T01:30:55.749Z,6.50
2022-10-20T01:33:30.083Z,6.58
2022-10-20T01:36:05.852Z,6.39
2022-10-20T01:38:39.324Z,6.41
2022-10-20T01:41:11.716Z,6.27
2022-10-20T01:43:43.768Z,6.39
2022-10-20T01:46:13.238Z,6.22
2022-10-20T01:48:41.521Z,6.35
2022-10-20T01:51:10.429Z,6.45
2022-10-20T01:53:38.215Z,6.31
2022-10-20T01:56:07.477Z,6.36
2022-10-20T01:59:01.407Z,6.25
2022-10-20T02:01:42.335Z,6.05
2022-10-20T02:04:11.154Z,5.82
2022-10-20T02:06:46.264Z,5.75
2022-10-20T02:09:18.667Z,5.65
2022-10-20T02:11:50.459Z,5.64
2022-10-20T02:14:21.562Z,5.76
2022-10-20T02:16:52.600Z,5.61
2022-10-20T02:19:24.540Z,5.95
2022-10-20T02:21:53.580Z,5.69
2022-10-20T02:24:26.906Z,5.74
2022-10-20T02:26:56.469Z,5.72
2022-10-20T02:29:30.191Z,5.67
2022-10-20T02:31:58.028Z,5.70
2022-10-20T02:34:26.868Z,5.75
2022-10-20T02:36:57.722Z,5.61
2022-10-20T02:39:25.328Z,5.63
2022-10-20T02:41:52.894Z,5.51
2022-10-20T02:44:20.352Z,5.33
2022-10-20T02:46:49.197Z,5.56
2022-10-20T02:49:16.658Z,5.79
2022-10-20T02:51:44.120Z,5.60
2022-10-20T02:54:11.572Z,5.52
2022-10-20T02:56:39.059Z,5.43
2022-10-20T02:59:06.521Z,5.36
2022-10-20T03:01:34.359Z,5.28
2022-10-20T03:04:03.231Z,5.07
2022-10-20T03:06:30.801Z,5.35
2022-10-20T03:08:58.315Z,5.22
2022-10-20T03:11:26.471Z,5.46
2022-10-20T03:13:54.308Z,5.52
2022-10-20T03:16:21.812Z,5.54
2022-10-20T03:18:49.324Z,5.73
2022-10-20T03:21:18.179Z,5.90
2022-10-20T03:23:45.680Z,6.03
2022-10-20T03:26:13.594Z,5.85
2022-10-20T03:28:41.628Z,5.93
2022-10-20T03:31:09.791Z,6.01
2022-10-20T03:33:37.933Z,5.81
2022-10-20T03:36:06.087Z,5.80
2022-10-20T03:38:34.956Z,5.58
2022-10-20T03:41:02.687Z,5.71
2022-10-20T03:43:30.227Z,5.50
2022-10-20T03:46:05.952Z,5.38
2022-10-20T03:48:34.052Z,5.58
2022-10-20T03:51:01.854Z,5.39
2022-10-20T03:53:29.765Z,5.44
2022-10-20T03:55:58.889Z,5.70
2022-10-20T03:58:26.372Z,5.56
2022-10-20T04:00:55.107Z,5.24
2022-10-20T04:03:22.561Z,5.16
2022-10-20T04:05:50.037Z,5.09
2022-10-20T04:08:17.543Z,5.12
2022-10-20T04:10:45.014Z,5.17
2022-10-20T04:13:14.160Z,4.80
2022-10-20T04:15:41.722Z,5.00
2022-10-20T04:18:09.233Z,4.95
2022-10-20T04:20:39.299Z,4.73
2022-10-20T04:23:09.466Z,4.69
2022-10-20T04:25:40.633Z,4.80
2022-10-20T04:28:08.818Z,4.56
2022-10-20T04:30:39.519Z,4.70
2022-10-20T04:33:06.971Z,4.62
2022-10-20T04:35:34.529Z,4.67
2022-10-20T04:38:02.114Z,4.56
2022-10-20T04:40:29.655Z,4.83
2022-10-20T04:42:57.150Z,4.88
2022-10-20T04:45:24.599Z,4.64
2022-10-20T04:47:53.428Z,4.70
2022-10-20T04:50:22.351Z,4.72
2022-10-20T04:52:51.234Z,4.83
2022-10-20T04:55:18.831Z,4.83
2022-10-20T04:57:46.313Z,4.77
2022-10-20T05:00:14.787Z,5.03
2022-10-20T05:02:42.234Z,4.97
2022-10-20T05:05:11.329Z,5.20
2022-10-20T05:07:39.245Z,5.56
2022-10-20T05:10:08.083Z,5.78
2022-10-20T05:12:35.706Z,6.06
2022-10-20T05:15:03.297Z,6.22
2022-10-20T05:17:31.485Z,6.31
2022-10-20T05:19:58.971Z,6.50
2022-10-20T05:22:27.783Z,6.51
2022-10-20T05:24:55.372Z,6.65
2022-10-20T05:27:22.869Z,6.70
2022-10-20T05:29:50.337Z,6.88
2022-10-20T05:32:17.796Z,6.86
2022-10-20T05:34:45.238Z,6.92
2022-10-20T05:37:13.140Z,6.93
2022-10-20T05:39:42.460Z,7.01
2022-10-20T05:42:09.992Z,7.12
2022-10-20T05:44:37.419Z,7.29
2022-10-20T05:47:05.129Z,7.33
2022-10-20T05:49:32.601Z,7.45
2022-10-20T05:52:00.387Z,7.41
2022-10-20T05:54:28.219Z,7.47
2022-10-20T05:56:57.012Z,7.69
2022-10-20T05:59:24.536Z,7.62
2022-10-20T06:01:52.849Z,7.59
2022-10-20T06:04:23.398Z,7.71
2022-10-20T06:06:51.221Z,7.69
2022-10-20T06:09:20.087Z,7.85
2022-10-20T06:11:47.574Z,7.95
2022-10-20T06:14:17.219Z,7.93
2022-10-20T06:16:46.214Z,7.86
2022-10-20T06:19:13.681Z,7.88
2022-10-20T06:24:08.922Z,8.13
2022-10-20T06:26:37.340Z,8.23
2022-10-20T06:29:06.102Z,8.35
2022-10-20T06:31:36.377Z,8.47
2022-10-20T06:34:06.174Z,8.46
2022-10-20T06:36:36.129Z,8.42
2022-10-20T06:39:05.382Z,8.55
2022-10-20T06:41:33.063Z,8.64
2022-10-20T06:44:00.726Z,8.67
2022-10-20T06:46:32.686Z,8.72
2022-10-20T06:49:03.629Z,8.79
2022-10-20T06:51:31.323Z,8.85
2022-10-20T06:54:00.955Z,8.94
2022-10-20T06:56:30.750Z,9.01
2022-10-20T06:59:00.115Z,9.06
2022-10-20T07:01:29.055Z,9.18
2022-10-20T07:03:58.612Z,9.21
2022-10-20T07:06:29.434Z,9.26
2022-10-20T07:08:58.220Z,9.34
2022-10-20T07:11:27.711Z,9.49
2022-10-20T07:13:55.462Z,9.60
2022-10-20T07:16:25.601Z,9.58
2022-10-20T07:18:53.494Z,9.68
2022-10-20T07:21:22.564Z,9.78
2022-10-20T07:23:52.926Z,9.82
2022-10-20T07:26:22.659Z,9.84
2022-10-20T07:28:55.820Z,9.93
2022-10-20T07:31:26.711Z,10.09
2022-10-20T07:34:07.082Z,10.10
2022-10-20T07:36:43.518Z,10.25
2022-10-20T07:39:13.689Z,10.32
2022-10-20T07:41:43.950Z,10.41
2022-10-20T07:44:11.493Z,10.52
2022-10-20T07:46:38.986Z,10.56
2022-10-20T07:49:38.164Z,10.69
2022-10-20T07:51:53.923Z,10.66
2022-10-20T07:54:22.776Z,10.72
2022-10-20T07:56:50.431Z,10.80
2022-10-20T07:59:18.051Z,10.86
2022-10-20T08:01:45.612Z,11.00
2022-10-20T08:04:13.205Z,11.08
2022-10-20T08:06:40.676Z,11.20
2022-10-20T08:09:08.428Z,11.31
2022-10-20T08:11:37.303Z,11.39
2022-10-20T08:14:05.344Z,11.43
2022-10-20T08:19:25.965Z,11.65
2022-10-20T08:21:53.738Z,11.83
2022-10-20T08:24:21.231Z,11.80
2022-10-20T08:26:50.021Z,11.95
2022-10-20T08:29:17.519Z,11.88
2022-10-20T08:31:45.092Z,12.00
2022-10-20T08:34:12.744Z,11.95
2022-10-20T08:36:40.221Z,12.05
2022-10-20T08:39:07.760Z,12.08
2022-10-20T08:41:55.195Z,12.21
2022-10-20T08:44:29.799Z,12.20
2022-10-20T08:46:57.764Z,12.06
2022-10-20T08:49:28.568Z,12.12
2022-10-20T08:51:56.447Z,12.01
2022-10-20T08:54:23.953Z,12.13
2022-10-20T08:56:51.515Z,12.16
2022-10-20T08:59:30.202Z,12.35
2022-10-20T09:01:58.628Z,12.41
2022-10-20T09:04:28.603Z,12.31
2022-10-20T09:06:59.964Z,12.26
2022-10-20T09:09:31.466Z,12.31
2022-10-20T09:12:05.516Z,12.47
2022-10-20T09:14:38.478Z,12.64
2022-10-20T09:17:11.320Z,12.63
2022-10-20T09:19:39.104Z,12.66
2022-10-20T09:22:07.920Z,12.83
2022-10-20T09:24:37.992Z,12.98
2022-10-20T09:27:22.202Z,13.12
2022-10-20T09:29:51.314Z,13.14
2022-10-20T09:35:20.229Z,13.04
2022-10-20T09:37:53.881Z,12.86
2022-10-20T09:40:22.586Z,12.78
2022-10-20T09:42:52.323Z,12.73
2022-10-20T09:45:23.393Z,12.83
2022-10-20T09:47:53.437Z,12.74
2022-10-20T09:50:26.584Z,12.86
2022-10-20T09:52:55.005Z,12.96
2022-10-20T09:55:28.155Z,12.92
2022-10-20T09:57:57.775Z,13.17
2022-10-20T10:00:38.678Z,13.28
2022-10-20T10:03:23.127Z,13.40
2022-10-20T10:05:52.831Z,13.53
2022-10-20T10:08:22.207Z,13.80
2022-10-20T10:11:00.824Z,13.73
2022-10-20T10:13:31.285Z,13.48
2022-10-20T10:16:07.151Z,13.47
2022-10-20T10:18:35.997Z,13.70
2022-10-20T10:21:06.841Z,13.71
2022-10-20T10:23:40.884Z,13.87
2022-10-20T10:26:43.343Z,13.91
2022-10-20T10:29:19.255Z,14.21
2022-10-20T10:31:53.195Z,14.39
2022-10-20T10:34:41.141Z,14.19
2022-10-20T10:37:12.938Z,14.24
2022-10-20T10:39:40.980Z,14.30
2022-10-20T10:42:37.260Z,14.30
2022-10-20T10:45:19.035Z,14.49
2022-10-20T10:48:08.023Z,14.38
2022-10-20T10:50:39.786Z,14.26
2022-10-20T10:53:21.034Z,14.12
2022-10-20T10:55:56.052Z,14.28
2022-10-20T10:58:40.119Z,14.11
2022-10-20T11:01:20.826Z,14.24
2022-10-20T11:04:14.158Z,14.32
2022-10-20T11:06:44.867Z,14.25
2022-10-20T11:09:23.446Z,14.43
2022-10-20T11:12:25.277Z,14.38
2022-10-20T11:15:07.286Z,14.47
2022-10-20T11:17:47.211Z,14.25
2022-10-20T11:20:28.624Z,14.23
2022-10-20T11:23:24.449Z,14.13
2022-10-20T11:25:58.664Z,14.19
2022-10-20T11:28:32.186Z,14.50
2022-10-20T11:31:00.628Z,14.52
2022-10-20T11:33:35.734Z,14.53
2022-10-20T11:36:13.750Z,14.49
2022-10-20T11:39:41.205Z,14.55
2022-10-20T11:42:21.491Z,14.36
2022-10-20T11:44:50.389Z,14.48
2022-10-20T11:47:23.355Z,14.49
2022-10-20T11:49:51.083Z,14.45
2022-10-20T11:52:47.572Z,14.51
2022-10-20T11:55:33.571Z,14.64
2022-10-20T11:58:16.312Z,14.78
2022-10-20T12:01:01.298Z,14.75
2022-10-20T12:04:01.579Z,14.79
2022-10-20T12:06:45.809Z,14.91
2022-10-20T12:09:52.215Z,14.82
2022-10-20T12:12:30.008Z,14.73
2022-10-20T12:15:00.385Z,14.72
2022-10-20T12:17:32.884Z,14.67
2022-10-20T12:20:37.539Z,14.72
2022-10-20T12:23:05.339Z,14.69
2022-10-20T12:25:39.463Z,14.66
2022-10-20T12:28:43.044Z,14.77
2022-10-20T12:31:10.692Z,14.57
2022-10-20T12:33:59.169Z,14.56
2022-10-20T12:36:35.891Z,14.58
2022-10-20T12:42:12.137Z,14.40
2022-10-20T12:44:45.723Z,14.48
2022-10-20T12:47:21.431Z,14.37
2022-10-20T12:49:56.265Z,14.44
2022-10-20T12:52:28.710Z,14.42
2022-10-20T12:55:03.595Z,14.44
2022-10-20T12:58:30.758Z,14.41
2022-10-20T13:01:06.988Z,14.42
2022-10-20T13:03:52.788Z,14.33
2022-10-20T13:06:46.296Z,14.36
2022-10-20T13:09:22.143Z,14.49
2022-10-20T13:13:03.076Z,14.48
2022-10-20T13:15:33.676Z,14.41
2022-10-20T13:18:05.280Z,14.37
2022-10-20T13:20:44.201Z,14.40
2022-10-20T13:23:18.133Z,14.44
2022-10-20T13:25:47.659Z,14.34
2022-10-20T13:28:21.700Z,14.41
2022-10-20T13:31:14.043Z,14.43
2022-10-20T13:34:04.096Z,14.35
2022-10-20T13:36:46.599Z,14.22
2022-10-20T13:39:21.070Z,14.16
2022-10-20T13:41:58.506Z,14.13
2022-10-20T13:44:34.265Z,14.13
2022-10-20T13:47:13.018Z,14.06
2022-10-20T13:49:54.307Z,14.00
2022-10-20T13:52:22.431Z,13.95
2022-10-20T13:54:52.084Z,13.92
2022-10-20T13:57:27.535Z,13.93
2022-10-20T14:00:00.960Z,13.90
2022-10-20T14:02:31.461Z,14.05
2022-10-20T14:05:13.351Z,14.06
2022-10-20T14:07:42.835Z,14.05
2022-10-20T14:10:26.612Z,14.04
2022-10-20T14:12:55.216Z,14.08
2022-10-20T14:15:29.576Z,14.06
2022-10-20T14:18:02.710Z,14.02
2022-10-20T14:20:32.999Z,13.96
2022-10-20T14:23:02.965Z,13.95
2022-10-20T14:25:31.610Z,13.92
2022-10-20T14:28:01.812Z,13.87
2022-10-20T14:30:33.898Z,13.92
2022-10-20T14:33:03.651Z,13.80
2022-10-20T14:35:41.813Z,13.72
2022-10-20T14:38:18.840Z,13.67
2022-10-20T14:40:51.622Z,13.69
2022-10-20T14:43:22.470Z,13.65
2022-10-20T14:45:55.285Z,13.56
2022-10-20T14:48:23.539Z,13.55
2022-10-20T14:50:53.571Z,13.60
2022-10-20T14:53:31.786Z,13.51
2022-10-20T14:56:02.171Z,13.49
2022-10-20T14:58:33.964Z,13.50
2022-10-20T15:01:25.801Z,13.51
2022-10-20T15:06:38.202Z,13.35
2022-10-20T15:09:05.892Z,13.30
2022-10-20T15:11:33.508Z,13.22
2022-10-20T15:14:01.502Z,13.27
2022-10-20T15:16:35.733Z,13.34
2022-10-20T15:19:13.197Z,13.06
2022-10-20T15:21:42.004Z,13.11
2022-10-20T15:24:09.443Z,13.03
2022-10-20T15:26:36.940Z,12.98
2022-10-20T15:29:07.914Z,12.86
2022-10-20T15:34:10.558Z,12.85
2022-10-20T15:36:41.971Z,12.75
2022-10-20T15:39:12.036Z,12.70
2022-10-20T15:41:40.044Z,12.65
2022-10-20T15:44:14.906Z,12.62
2022-10-20T15:46:42.983Z,12.56
2022-10-20T15:49:10.595Z,12.52
2022-10-20T15:51:41.838Z,12.40
2022-10-20T15:54:12.175Z,12.44
2022-10-20T15:56:39.637Z,12.45
2022-10-20T15:59:07.127Z,12.76
2022-10-20T16:01:34.883Z,12.67
2022-10-20T16:04:02.971Z,12.83
2022-10-20T16:06:30.488Z,12.88
2022-10-20T16:08:58.013Z,12.79
2022-10-20T16:11:26.933Z,12.77
2022-10-20T16:13:54.385Z,12.75
2022-10-20T16:16:21.916Z,12.70
2022-10-20T16:18:49.561Z,12.77
2022-10-20T16:21:17.060Z,12.67
2022-10-20T16:23:45.082Z,12.56
2022-10-20T16:26:13.984Z,12.47
2022-10-20T16:28:43.107Z,12.49
2022-10-20T16:31:14.040Z,12.31
2022-10-20T16:33:41.833Z,12.36
2022-10-20T16:36:11.217Z,12.38
2022-10-20T16:38:40.409Z,12.25
2022-10-20T16:41:10.525Z,12.28
2022-10-20T16:43:38.837Z,12.27
2022-10-20T16:46:08.444Z,12.10
2022-10-20T16:48:37.814Z,12.12
2022-10-20T16:51:06.999Z,12.17
2022-10-20T16:53:35.490Z,12.12
2022-10-20T16:56:03.375Z,12.11
2022-10-20T16:58:30.876Z,11.99
2022-10-20T17:01:00.416Z,11.97
2022-10-20T17:03:30.128Z,12.09
2022-10-20T17:05:59.342Z,11.89
2022-10-20T17:08:28.016Z,11.86
2022-10-20T17:10:56.832Z,11.76
2022-10-20T17:13:25.200Z,11.74
2022-10-20T17:15:52.821Z,11.83
2022-10-20T17:18:20.990Z,11.78
2022-10-20T17:20:53.922Z,11.78
2022-10-20T17:23:21.703Z,11.73
2022-10-20T17:25:49.314Z,11.87
2022-10-20T17:28:16.776Z,11.89
2022-10-20T17:30:45.163Z,11.80
2022-10-20T17:33:13.055Z,11.91
2022-10-20T17:35:40.910Z,11.93
2022-10-20T17:38:09.711Z,11.96
2022-10-20T17:40:37.784Z,11.92
2022-10-20T17:43:05.440Z,11.81
2022-10-20T17:45:35.046Z,11.74
2022-10-20T17:48:05.326Z,11.74
2022-10-20T17:50:33.142Z,11.80
2022-10-20T17:53:01.126Z,11.82
2022-10-20T17:55:31.091Z,11.69
2022-10-20T17:58:02.405Z,11.69
2022-10-20T18:00:54.982Z,11.71
2022-10-20T18:03:19.859Z,11.76
2022-10-20T18:05:47.332Z,11.75
2022-10-20T18:08:14.883Z,11.64
2022-10-20T18:10:47.949Z,11.57
2022-10-20T18:13:15.378Z,11.62
2022-10-20T18:15:43.644Z,11.65
2022-10-20T18:18:11.466Z,11.64
2022-10-20T18:20:38.932Z,11.66
2022-10-20T18:23:06.415Z,11.53
2022-10-20T18:25:36.386Z,11.51
2022-10-20T18:28:05.488Z,11.58
2022-10-20T18:30:32.975Z,11.55
2022-10-20T18:33:00.486Z,11.55
2022-10-20T18:35:27.994Z,11.62
2022-10-20T18:37:57.559Z,11.62
2022-10-20T18:40:25.248Z,11.66
2022-10-20T18:42:52.712Z,11.67
2022-10-20T18:45:23.819Z,11.67
2022-10-20T18:47:53.775Z,11.60
2022-10-20T18:50:21.454Z,11.62
2022-10-20T18:52:48.917Z,11.67
2022-10-20T18:55:16.518Z,11.67
2022-10-20T18:57:43.950Z,11.67
2022-10-20T19:00:12.804Z,11.67
2022-10-20T19:05:36.652Z,11.76
2022-10-20T19:08:04.236Z,11.73
2022-10-20T19:10:31.816Z,11.77
2022-10-20T19:12:59.273Z,11.67
2022-10-20T19:15:26.748Z,11.70
2022-10-20T19:17:59.399Z,11.75
2022-10-20T19:23:23.970Z,11.74
2022-10-20T19:26:02.934Z,11.55
2022-10-20T19:28:31.521Z,11.64
2022-10-20T19:30:59.155Z,11.60
2022-10-20T19:33:28.645Z,11.55
2022-10-20T19:35:56.317Z,11.61
2022-10-20T19:38:23.779Z,11.62
2022-10-20T19:40:51.486Z,11.64
2022-10-20T19:43:18.981Z,11.64
2022-10-20T19:45:49.160Z,11.70
2022-10-20T19:48:17.371Z,11.53
2022-10-20T19:50:46.574Z,11.63
2022-10-20T19:53:14.092Z,11.80
2022-10-20T19:55:41.549Z,11.76
2022-10-20T20:00:43.809Z,11.66
2022-10-20T20:03:11.721Z,11.65
2022-10-20T20:05:39.202Z,11.62
2022-10-20T20:08:08.521Z,11.63
2022-10-20T20:10:36.862Z,11.54
2022-10-20T20:13:05.100Z,11.53
2022-10-20T20:15:32.583Z,11.38
2022-10-20T20:18:00.031Z,11.52
2022-10-20T20:20:27.499Z,11.48
2022-10-20T20:22:55.674Z,11.55
2022-10-20T20:25:24.442Z,11.44
2022-10-20T20:27:55.928Z,11.37
2022-10-20T20:30:23.383Z,11.54
2022-10-20T20:32:54.214Z,11.51
2022-10-20T20:35:22.030Z,11.52
2022-10-20T20:37:49.470Z,11.51
2022-10-20T20:40:18.104Z,11.52
2022-10-20T20:42:47.623Z,11.49
2022-10-20T20:45:16.143Z,11.51
2022-10-20T20:47:46.768Z,11.48
2022-10-20T20:50:14.576Z,11.49
2022-10-20T20:52:42.030Z,11.54
2022-10-20T20:55:09.764Z,11.61
2022-10-20T20:57:37.509Z,11.64
2022-10-20T21:00:08.036Z,11.53
2022-10-20T21:02:35.475Z,11.58
2022-10-20T21:05:03.160Z,11.52
2022-10-20T21:07:30.586Z,11.51
2022-10-20T21:09:58.012Z,11.47
2022-10-20T21:12:28.657Z,11.59
2022-10-20T21:15:01.888Z,11.57
2022-10-20T21:17:34.940Z,11.60
2022-10-20T21:20:02.376Z,11.56
2022-10-20T21:22:29.820Z,11.60
2022-10-20T21:24:57.283Z,11.53
2022-10-20T21:27:24.845Z,11.48
2022-10-20T21:29:52.314Z,11.41
2022-10-20T21:32:20.331Z,11.57
2022-10-20T21:34:49.258Z,11.61
2022-10-20T21:37:16.738Z,11.58
2022-10-20T21:39:44.504Z,11.70
2022-10-20T21:42:11.934Z,11.69
2022-10-20T21:44:39.411Z,11.79
2022-10-20T21:47:07.063Z,11.88
2022-10-20T21:49:34.622Z,11.89
2022-10-20T21:52:03.412Z,11.83
2022-10-20T21:54:30.901Z,11.89
2022-10-20T21:56:58.759Z,11.95
2022-10-20T21:59:30.867Z,12.05
2022-10-20T22:02:00.035Z,12.04
2022-10-20T22:04:29.358Z,11.99
2022-10-20T22:06:57.545Z,11.98
2022-10-20T22:09:26.518Z,11.98
2022-10-20T22:11:56.517Z,11.96
2022-10-20T22:14:24.010Z,12.10
2022-10-20T22:16:51.657Z,12.01
2022-10-20T22:19:21.879Z,11.98
2022-10-20T22:21:51.099Z,11.98
2022-10-20T22:24:19.409Z,11.97
2022-10-20T22:26:49.226Z,11.99
2022-10-20T22:29:16.756Z,11.94
2022-10-20T22:31:44.241Z,11.96
2022-10-20T22:34:12.127Z,11.94
2022-10-20T22:36:40.719Z,11.94
2022-10-20T22:39:09.073Z,11.95
2022-10-20T22:41:36.790Z,11.99
2022-10-20T22:44:05.977Z,11.96
2022-10-20T22:46:33.603Z,11.98
2022-10-20T22:49:01.429Z,11.96
2022-10-20T22:51:28.956Z,11.92
2022-10-20T22:53:56.801Z,11.92
2022-10-20T22:56:24.282Z,11.88
2022-10-20T22:58:53.413Z,11.90
2022-10-20T23:01:24.186Z,11.99
2022-10-20T23:03:52.132Z,12.03
2022-10-20T23:06:22.606Z,11.99
2022-10-20T23:08:51.666Z,11.97
2022-10-20T23:11:20.031Z,12.05
2022-10-20T23:13:48.002Z,12.01
2022-10-20T23:16:16.012Z,12.05
2022-10-20T23:18:44.864Z,12.02
2022-10-20T23:21:13.699Z,12.07
2022-10-20T23:23:41.670Z,12.03
2022-10-20T23:26:09.965Z,12.05
2022-10-20T23:28:38.655Z,12.10
2022-10-20T23:31:09.218Z,12.05
2022-10-20T23:33:36.895Z,11.99
2022-10-20T23:36:06.032Z,11.98
2022-10-20T23:38:33.739Z,12.01
2022-10-20T23:41:01.343Z,11.96
2022-10-20T23:43:28.871Z,11.96
2022-10-20T23:45:56.550Z,11.93
2022-10-20T23:48:23.999Z,11.90
2022-10-20T23:50:51.695Z,11.92
2022-10-20T23:53:20.835Z,11.91
2022-10-20T23:55:48.312Z,11.97
2022-10-20T23:58:16.088Z,11.91
